sensor_id;sensor_type;location;lat;lon;timestamp;temperature;humidity
3758;DHT22;1894;51.038;13.692;2023-06-04T00:00:16;9.90;99.90
3758;DHT22;1894;51.038;13.692;2023-06-04T00:02:43;9.80;99.90
3758;DHT22;1894;51.038;13.692;2023-06-04T00:05:10;9.70;99.90
3758;DHT22;1894;51.038;13.692;2023-06-04T00:07:37;9.70;99.90
3758;DHT22;1894;51.038;13.692;2023-06-04T00:10:05;9.70;99.90
3758;DHT22;1894;51.038;13.692;2023-06-04T00:12:32;9.70;99.90
3758;DHT22;1894;51.038;13.692;2023-06-04T00:14:59;9.80;99.90
3758;DHT22;1894;51.038;13.692;2023-06-04T00:17:26;9.80;99.90
3758;DHT22;1894;51.038;13.692;2023-06-04T00:19:53;9.70;99.90
3758;DHT22;1894;51.038;13.692;2023-06-04T00:22:20;9.70;99.90
3758;DHT22;1894;51.038;13.692;2023-06-04T00:24:47;9.60;99.90
3758;DHT22;1894;51.038;13.692;2023-06-04T00:27:14;9.60;99.90
3758;DHT22;1894;51.038;13.692;2023-06-04T00:29:41;9.60;99.90
3758;DHT22;1894;51.038;13.692;2023-06-04T00:32:08;9.50;99.90
3758;DHT22;1894;51.038;13.692;2023-06-04T00:34:35;9.50;99.90
3758;DHT22;1894;51.038;13.692;2023-06-04T00:37:02;9.40;99.90
3758;DHT22;1894;51.038;13.692;2023-06-04T00:39:30;9.40;99.90
3758;DHT22;1894;51.038;13.692;2023-06-04T00:41:57;9.40;99.90
3758;DHT22;1894;51.038;13.692;2023-06-04T00:44:24;9.40;99.90
3758;DHT22;1894;51.038;13.692;2023-06-04T00:46:53;9.40;99.90
3758;DHT22;1894;51.038;13.692;2023-06-04T00:49:23;9.40;99.90
3758;DHT22;1894;51.038;13.692;2023-06-04T00:51:50;9.40;99.90
3758;DHT22;1894;51.038;13.692;2023-06-04T00:54:19;9.40;99.90
3758;DHT22;1894;51.038;13.692;2023-06-04T00:56:47;9.40;99.90
3758;DHT22;1894;51.038;13.692;2023-06-04T00:59:15;9.40;99.90
3758;DHT22;1894;51.038;13.692;2023-06-04T01:02:21;9.30;99.90
3758;DHT22;1894;51.038;13.692;2023-06-04T01:05:14;9.20;99.90
3758;DHT22;1894;51.038;13.692;2023-06-04T01:07:44;9.10;99.90
3758;DHT22;1894;51.038;13.692;2023-06-04T01:10:15;9.10;99.90
3758;DHT22;1894;51.038;13.692;2023-06-04T01:12:43;9.00;99.90
3758;DHT22;1894;51.038;13.692;2023-06-04T01:15:10;9.00;99.90
3758;DHT22;1894;51.038;13.692;2023-06-04T01:17:43;8.90;99.90
3758;DHT22;1894;51.038;13.692;2023-06-04T01:20:23;8.80;99.90
3758;DHT22;1894;51.038;13.692;2023-06-04T01:25:37;8.80;99.90
3758;DHT22;1894;51.038;13.692;2023-06-04T01:28:16;8.90;99.90
3758;DHT22;1894;51.038;13.692;2023-06-04T01:30:45;8.80;99.90
3758;DHT22;1894;51.038;13.692;2023-06-04T01:33:15;8.90;99.90
3758;DHT22;1894;51.038;13.692;2023-06-04T01:35:42;8.80;99.90
3758;DHT22;1894;51.038;13.692;2023-06-04T01:38:10;8.80;99.90
3758;DHT22;1894;51.038;13.692;2023-06-04T01:40:37;8.80;99.90
3758;DHT22;1894;51.038;13.692;2023-06-04T01:43:04;8.80;99.90
3758;DHT22;1894;51.038;13.692;2023-06-04T01:45:32;8.70;99.90
3758;DHT22;1894;51.038;13.692;2023-06-04T01:48:01;8.70;99.90
3758;DHT22;1894;51.038;13.692;2023-06-04T01:50:29;8.60;99.90
3758;DHT22;1894;51.038;13.692;2023-06-04T01:52:57;8.50;99.90
3758;DHT22;1894;51.038;13.692;2023-06-04T01:55:25;8.60;99.90
3758;DHT22;1894;51.038;13.692;2023-06-04T01:57:52;8.60;99.90
3758;DHT22;1894;51.038;13.692;2023-06-04T02:00:20;8.50;99.90
3758;DHT22;1894;51.038;13.692;2023-06-04T02:02:47;8.50;99.90
3758;DHT22;1894;51.038;13.692;2023-06-04T02:05:15;8.40;99.90
3758;DHT22;1894;51.038;13.692;2023-06-04T02:07:43;8.40;99.90
3758;DHT22;1894;51.038;13.692;2023-06-04T02:10:13;8.40;99.90
3758;DHT22;1894;51.038;13.692;2023-06-04T02:12:52;8.40;99.90
3758;DHT22;1894;51.038;13.692;2023-06-04T02:15:19;8.20;99.90
3758;DHT22;1894;51.038;13.692;2023-06-04T02:17:46;8.30;99.90
3758;DHT22;1894;51.038;13.692;2023-06-04T02:20:14;8.20;99.90
3758;DHT22;1894;51.038;13.692;2023-06-04T02:22:42;8.20;99.90
3758;DHT22;1894;51.038;13.692;2023-06-04T02:25:09;8.20;99.90
3758;DHT22;1894;51.038;13.692;2023-06-04T02:27:36;8.20;99.90
3758;DHT22;1894;51.038;13.692;2023-06-04T02:30:04;8.20;99.90
3758;DHT22;1894;51.038;13.692;2023-06-04T02:32:32;8.20;99.90
3758;DHT22;1894;51.038;13.692;2023-06-04T02:35:03;8.10;99.90
3758;DHT22;1894;51.038;13.692;2023-06-04T02:37:30;7.80;99.90
3758;DHT22;1894;51.038;13.692;2023-06-04T02:39:57;7.70;99.90
3758;DHT22;1894;51.038;13.692;2023-06-04T02:42:24;7.70;99.90
3758;DHT22;1894;51.038;13.692;2023-06-04T02:44:51;7.60;99.90
3758;DHT22;1894;51.038;13.692;2023-06-04T02:47:18;7.70;99.90
3758;DHT22;1894;51.038;13.692;2023-06-04T02:49:46;7.70;99.90
3758;DHT22;1894;51.038;13.692;2023-06-04T02:52:13;7.70;99.90
3758;DHT22;1894;51.038;13.692;2023-06-04T02:54:40;7.60;99.90
3758;DHT22;1894;51.038;13.692;2023-06-04T02:57:07;7.60;99.90
3758;DHT22;1894;51.038;13.692;2023-06-04T02:59:35;7.60;99.90
3758;DHT22;1894;51.038;13.692;2023-06-04T03:02:04;7.50;99.90
3758;DHT22;1894;51.038;13.692;2023-06-04T03:04:31;7.50;99.90
3758;DHT22;1894;51.038;13.692;2023-06-04T03:07:02;7.40;99.90
3758;DHT22;1894;51.038;13.692;2023-06-04T03:09:30;7.40;99.90
3758;DHT22;1894;51.038;13.692;2023-06-04T03:12:00;7.50;99.90
3758;DHT22;1894;51.038;13.692;2023-06-04T03:14:31;7.40;99.90
3758;DHT22;1894;51.038;13.692;2023-06-04T03:17:02;7.30;99.90
3758;DHT22;1894;51.038;13.692;2023-06-04T03:19:37;7.40;99.90
3758;DHT22;1894;51.038;13.692;2023-06-04T03:22:06;7.40;99.90
3758;DHT22;1894;51.038;13.692;2023-06-04T03:24:39;7.50;99.90
3758;DHT22;1894;51.038;13.692;2023-06-04T03:27:08;7.60;99.90
3758;DHT22;1894;51.038;13.692;2023-06-04T03:29:36;7.60;99.90
3758;DHT22;1894;51.038;13.692;2023-06-04T03:32:06;7.70;99.90
3758;DHT22;1894;51.038;13.692;2023-06-04T03:34:33;7.80;99.90
3758;DHT22;1894;51.038;13.692;2023-06-04T03:37:01;7.80;99.90
3758;DHT22;1894;51.038;13.692;2023-06-04T03:39:30;7.70;99.90
3758;DHT22;1894;51.038;13.692;2023-06-04T03:41:58;7.80;99.90
3758;DHT22;1894;51.038;13.692;2023-06-04T03:44:26;7.80;99.90
3758;DHT22;1894;51.038;13.692;2023-06-04T03:46:54;7.80;99.90
3758;DHT22;1894;51.038;13.692;2023-06-04T03:49:22;7.70;99.90
3758;DHT22;1894;51.038;13.692;2023-06-04T03:51:49;7.70;99.90
3758;DHT22;1894;51.038;13.692;2023-06-04T03:54:18;7.90;99.90
3758;DHT22;1894;51.038;13.692;2023-06-04T03:56:48;7.90;99.90
3758;DHT22;1894;51.038;13.692;2023-06-04T03:59:15;8.10;99.90
3758;DHT22;1894;51.038;13.692;2023-06-04T04:01:42;8.20;99.90
3758;DHT22;1894;51.038;13.692;2023-06-04T04:04:10;8.30;99.90
3758;DHT22;1894;51.038;13.692;2023-06-04T04:06:38;8.50;99.90
3758;DHT22;1894;51.038;13.692;2023-06-04T04:09:05;8.60;99.90
3758;DHT22;1894;51.038;13.692;2023-06-04T04:11:34;8.60;99.90
3758;DHT22;1894;51.038;13.692;2023-06-04T04:14:03;8.80;99.90
3758;DHT22;1894;51.038;13.692;2023-06-04T04:16:30;8.90;99.90
3758;DHT22;1894;51.038;13.692;2023-06-04T04:18:57;8.90;99.90
3758;DHT22;1894;51.038;13.692;2023-06-04T04:21:25;9.10;99.90
3758;DHT22;1894;51.038;13.692;2023-06-04T04:23:52;9.20;99.90
3758;DHT22;1894;51.038;13.692;2023-06-04T04:26:20;9.20;99.90
3758;DHT22;1894;51.038;13.692;2023-06-04T04:28:51;9.20;99.90
3758;DHT22;1894;51.038;13.692;2023-06-04T04:31:20;9.30;99.90
3758;DHT22;1894;51.038;13.692;2023-06-04T04:33:50;9.60;99.90
3758;DHT22;1894;51.038;13.692;2023-06-04T04:36:19;9.80;99.90
3758;DHT22;1894;51.038;13.692;2023-06-04T04:38:50;10.00;99.90
3758;DHT22;1894;51.038;13.692;2023-06-04T04:41:26;10.10;99.90
3758;DHT22;1894;51.038;13.692;2023-06-04T04:44:03;10.10;99.90
3758;DHT22;1894;51.038;13.692;2023-06-04T04:46:30;10.20;99.90
3758;DHT22;1894;51.038;13.692;2023-06-04T04:48:58;10.30;99.90
3758;DHT22;1894;51.038;13.692;2023-06-04T04:51:25;10.60;99.90
3758;DHT22;1894;51.038;13.692;2023-06-04T04:53:53;10.60;99.90
3758;DHT22;1894;51.038;13.692;2023-06-04T04:56:23;10.80;99.90
3758;DHT22;1894;51.038;13.692;2023-06-04T04:58:51;10.90;99.90
3758;DHT22;1894;51.038;13.692;2023-06-04T05:01:19;10.90;99.90
3758;DHT22;1894;51.038;13.692;2023-06-04T05:03:48;11.20;99.90
3758;DHT22;1894;51.038;13.692;2023-06-04T05:06:17;11.20;99.90
3758;DHT22;1894;51.038;13.692;2023-06-04T05:08:45;11.20;99.90
3758;DHT22;1894;51.038;13.692;2023-06-04T05:11:14;11.40;99.90
3758;DHT22;1894;51.038;13.692;2023-06-04T05:13:42;11.70;99.90
3758;DHT22;1894;51.038;13.692;2023-06-04T05:16:11;11.90;99.90
3758;DHT22;1894;51.038;13.692;2023-06-04T05:18:44;11.90;99.90
3758;DHT22;1894;51.038;13.692;2023-06-04T05:21:18;12.20;99.90
3758;DHT22;1894;51.038;13.692;2023-06-04T05:23:55;12.40;99.90
3758;DHT22;1894;51.038;13.692;2023-06-04T05:26:26;12.50;99.90
3758;DHT22;1894;51.038;13.692;2023-06-04T05:28:58;12.70;99.70
3758;DHT22;1894;51.038;13.692;2023-06-04T05:31:31;12.70;99.00
3758;DHT22;1894;51.038;13.692;2023-06-04T05:34:04;12.90;98.90
3758;DHT22;1894;51.038;13.692;2023-06-04T05:36:33;12.70;99.80
3758;DHT22;1894;51.038;13.692;2023-06-04T05:39:03;13.00;99.60
3758;DHT22;1894;51.038;13.692;2023-06-04T05:41:37;13.10;98.10
3758;DHT22;1894;51.038;13.692;2023-06-04T05:44:05;13.30;97.40
3758;DHT22;1894;51.038;13.692;2023-06-04T05:46:33;13.10;96.60
3758;DHT22;1894;51.038;13.692;2023-06-04T05:49:00;12.80;97.20
3758;DHT22;1894;51.038;13.692;2023-06-04T05:51:28;13.30;96.90
3758;DHT22;1894;51.038;13.692;2023-06-04T05:53:56;13.70;95.80
3758;DHT22;1894;51.038;13.692;2023-06-04T05:56:23;13.90;95.40
3758;DHT22;1894;51.038;13.692;2023-06-04T05:58:53;14.00;95.40
3758;DHT22;1894;51.038;13.692;2023-06-04T06:01:23;14.00;93.50
3758;DHT22;1894;51.038;13.692;2023-06-04T06:03:51;13.80;93.70
3758;DHT22;1894;51.038;13.692;2023-06-04T06:06:21;14.00;94.20
3758;DHT22;1894;51.038;13.692;2023-06-04T06:08:48;14.30;94.40
3758;DHT22;1894;51.038;13.692;2023-06-04T06:11:16;14.80;94.60
3758;DHT22;1894;51.038;13.692;2023-06-04T06:13:44;15.00;94.20
3758;DHT22;1894;51.038;13.692;2023-06-04T06:16:12;15.00;92.50
3758;DHT22;1894;51.038;13.692;2023-06-04T06:18:39;15.20;91.60
3758;DHT22;1894;51.038;13.692;2023-06-04T06:21:06;15.30;90.70
3758;DHT22;1894;51.038;13.692;2023-06-04T06:23:34;15.40;89.90
3758;DHT22;1894;51.038;13.692;2023-06-04T06:26:02;15.50;87.50
3758;DHT22;1894;51.038;13.692;2023-06-04T06:28:36;15.30;89.10
3758;DHT22;1894;51.038;13.692;2023-06-04T06:31:03;15.50;88.20
3758;DHT22;1894;51.038;13.692;2023-06-04T06:33:30;15.80;84.80
3758;DHT22;1894;51.038;13.692;2023-06-04T06:35:58;15.80;81.80
3758;DHT22;1894;51.038;13.692;2023-06-04T06:38:27;15.70;84.40
3758;DHT22;1894;51.038;13.692;2023-06-04T06:40:55;15.80;84.40
3758;DHT22;1894;51.038;13.692;2023-06-04T06:43:25;16.00;82.70
3758;DHT22;1894;51.038;13.692;2023-06-04T06:45:52;15.90;84.50
3758;DHT22;1894;51.038;13.692;2023-06-04T06:48:19;16.10;85.40
3758;DHT22;1894;51.038;13.692;2023-06-04T06:50:46;16.30;83.30
3758;DHT22;1894;51.038;13.692;2023-06-04T06:53:13;16.40;80.10
3758;DHT22;1894;51.038;13.692;2023-06-04T06:55:40;16.30;79.70
3758;DHT22;1894;51.038;13.692;2023-06-04T06:58:07;16.40;79.40
3758;DHT22;1894;51.038;13.692;2023-06-04T07:00:34;16.40;80.40
3758;DHT22;1894;51.038;13.692;2023-06-04T07:03:01;16.40;78.40
3758;DHT22;1894;51.038;13.692;2023-06-04T07:05:30;16.70;77.00
3758;DHT22;1894;51.038;13.692;2023-06-04T07:07:58;16.60;79.20
3758;DHT22;1894;51.038;13.692;2023-06-04T07:10:28;16.60;78.60
3758;DHT22;1894;51.038;13.692;2023-06-04T07:12:55;17.10;74.40
3758;DHT22;1894;51.038;13.692;2023-06-04T07:15:22;17.20;72.80
3758;DHT22;1894;51.038;13.692;2023-06-04T07:17:49;17.10;73.00
3758;DHT22;1894;51.038;13.692;2023-06-04T07:20:17;17.30;70.70
3758;DHT22;1894;51.038;13.692;2023-06-04T07:22:44;17.40;69.10
3758;DHT22;1894;51.038;13.692;2023-06-04T07:25:11;17.40;69.60
3758;DHT22;1894;51.038;13.692;2023-06-04T07:27:38;17.60;67.30
3758;DHT22;1894;51.038;13.692;2023-06-04T07:30:06;17.70;66.30
3758;DHT22;1894;51.038;13.692;2023-06-04T07:32:34;17.70;65.10
3758;DHT22;1894;51.038;13.692;2023-06-04T07:35:03;17.70;66.70
3758;DHT22;1894;51.038;13.692;2023-06-04T07:37:30;17.70;66.10
3758;DHT22;1894;51.038;13.692;2023-06-04T07:39:57;17.80;64.80
3758;DHT22;1894;51.038;13.692;2023-06-04T07:42:27;18.20;64.40
3758;DHT22;1894;51.038;13.692;2023-06-04T07:44:54;18.30;64.90
3758;DHT22;1894;51.038;13.692;2023-06-04T07:47:22;18.40;64.40
3758;DHT22;1894;51.038;13.692;2023-06-04T07:49:49;18.50;68.60
3758;DHT22;1894;51.038;13.692;2023-06-04T07:52:29;18.70;61.50
3758;DHT22;1894;51.038;13.692;2023-06-04T07:54:56;18.40;60.90
3758;DHT22;1894;51.038;13.692;2023-06-04T07:57:23;18.50;65.20
3758;DHT22;1894;51.038;13.692;2023-06-04T07:59:51;18.70;61.10
3758;DHT22;1894;51.038;13.692;2023-06-04T08:02:18;18.30;61.90
3758;DHT22;1894;51.038;13.692;2023-06-04T08:04:46;18.30;63.50
3758;DHT22;1894;51.038;13.692;2023-06-04T08:07:13;18.60;64.90
3758;DHT22;1894;51.038;13.692;2023-06-04T08:09:41;18.50;66.70
3758;DHT22;1894;51.038;13.692;2023-06-04T08:12:08;18.80;64.70
3758;DHT22;1894;51.038;13.692;2023-06-04T08:14:37;19.10;66.40
3758;DHT22;1894;51.038;13.692;2023-06-04T08:17:04;19.40;62.50
3758;DHT22;1894;51.038;13.692;2023-06-04T08:19:31;19.50;70.40
3758;DHT22;1894;51.038;13.692;2023-06-04T08:21:58;19.60;64.80
3758;DHT22;1894;51.038;13.692;2023-06-04T08:24:26;19.90;72.20
3758;DHT22;1894;51.038;13.692;2023-06-04T08:26:53;19.60;63.00
3758;DHT22;1894;51.038;13.692;2023-06-04T08:29:20;19.70;63.90
3758;DHT22;1894;51.038;13.692;2023-06-04T08:31:47;19.90;64.90
3758;DHT22;1894;51.038;13.692;2023-06-04T08:34:14;19.90;65.30
3758;DHT22;1894;51.038;13.692;2023-06-04T08:36:42;20.20;70.30
3758;DHT22;1894;51.038;13.692;2023-06-04T08:39:09;20.40;63.20
3758;DHT22;1894;51.038;13.692;2023-06-04T08:41:48;20.20;57.40
3758;DHT22;1894;51.038;13.692;2023-06-04T08:44:17;19.80;57.80
3758;DHT22;1894;51.038;13.692;2023-06-04T08:46:44;19.40;59.70
3758;DHT22;1894;51.038;13.692;2023-06-04T08:49:14;19.70;61.30
3758;DHT22;1894;51.038;13.692;2023-06-04T08:51:43;20.10;65.40
3758;DHT22;1894;51.038;13.692;2023-06-04T08:54:11;20.40;58.20
3758;DHT22;1894;51.038;13.692;2023-06-04T08:56:39;20.20;58.20
3758;DHT22;1894;51.038;13.692;2023-06-04T08:59:09;20.10;58.30
3758;DHT22;1894;51.038;13.692;2023-06-04T09:01:37;20.40;61.00
3758;DHT22;1894;51.038;13.692;2023-06-04T09:04:06;20.10;55.90
3758;DHT22;1894;51.038;13.692;2023-06-04T09:06:39;19.90;56.00
3758;DHT22;1894;51.038;13.692;2023-06-04T09:09:09;19.90;57.60
3758;DHT22;1894;51.038;13.692;2023-06-04T09:11:41;20.00;60.20
3758;DHT22;1894;51.038;13.692;2023-06-04T09:14:14;20.40;56.70
3758;DHT22;1894;51.038;13.692;2023-06-04T09:16:47;20.20;54.20
3758;DHT22;1894;51.038;13.692;2023-06-04T09:19:15;20.60;57.20
3758;DHT22;1894;51.038;13.692;2023-06-04T09:22:01;20.30;55.00
3758;DHT22;1894;51.038;13.692;2023-06-04T09:24:41;20.40;55.50
3758;DHT22;1894;51.038;13.692;2023-06-04T09:27:16;20.30;53.70
3758;DHT22;1894;51.038;13.692;2023-06-04T09:29:53;20.40;54.50
3758;DHT22;1894;51.038;13.692;2023-06-04T09:32:25;20.60;54.00
3758;DHT22;1894;51.038;13.692;2023-06-04T09:34:55;21.00;51.70
3758;DHT22;1894;51.038;13.692;2023-06-04T09:37:23;21.10;50.40
3758;DHT22;1894;51.038;13.692;2023-06-04T09:39:55;21.00;50.10
3758;DHT22;1894;51.038;13.692;2023-06-04T09:42:23;21.20;49.70
3758;DHT22;1894;51.038;13.692;2023-06-04T09:44:50;21.30;47.90
3758;DHT22;1894;51.038;13.692;2023-06-04T09:47:17;21.10;49.00
3758;DHT22;1894;51.038;13.692;2023-06-04T09:49:46;20.70;48.60
3758;DHT22;1894;51.038;13.692;2023-06-04T09:52:14;20.60;46.90
3758;DHT22;1894;51.038;13.692;2023-06-04T09:54:41;20.70;47.70
3758;DHT22;1894;51.038;13.692;2023-06-04T09:59:49;21.00;45.60
3758;DHT22;1894;51.038;13.692;2023-06-04T10:02:21;21.10;44.50
3758;DHT22;1894;51.038;13.692;2023-06-04T10:04:58;21.00;44.20
3758;DHT22;1894;51.038;13.692;2023-06-04T10:07:26;20.70;43.90
3758;DHT22;1894;51.038;13.692;2023-06-04T10:09:54;20.80;46.40
3758;DHT22;1894;51.038;13.692;2023-06-04T10:12:30;20.90;49.90
3758;DHT22;1894;51.038;13.692;2023-06-04T10:15:07;21.00;44.50
3758;DHT22;1894;51.038;13.692;2023-06-04T10:17:40;21.30;44.60
3758;DHT22;1894;51.038;13.692;2023-06-04T10:20:08;21.30;44.00
3758;DHT22;1894;51.038;13.692;2023-06-04T10:22:37;21.40;44.70
3758;DHT22;1894;51.038;13.692;2023-06-04T10:25:04;21.30;49.60
3758;DHT22;1894;51.038;13.692;2023-06-04T10:27:32;21.20;51.10
3758;DHT22;1894;51.038;13.692;2023-06-04T10:30:03;21.20;48.90
3758;DHT22;1894;51.038;13.692;2023-06-04T10:32:31;21.20;53.60
3758;DHT22;1894;51.038;13.692;2023-06-04T10:34:58;21.30;47.30
3758;DHT22;1894;51.038;13.692;2023-06-04T10:37:26;21.50;46.10
3758;DHT22;1894;51.038;13.692;2023-06-04T10:39:55;21.60;45.90
3758;DHT22;1894;51.038;13.692;2023-06-04T10:42:25;21.70;44.40
3758;DHT22;1894;51.038;13.692;2023-06-04T10:44:54;21.90;43.60
3758;DHT22;1894;51.038;13.692;2023-06-04T10:47:25;21.80;42.70
3758;DHT22;1894;51.038;13.692;2023-06-04T10:49:54;21.60;40.80
3758;DHT22;1894;51.038;13.692;2023-06-04T10:52:25;21.80;42.00
3758;DHT22;1894;51.038;13.692;2023-06-04T10:55:08;21.40;41.00
3758;DHT22;1894;51.038;13.692;2023-06-04T10:57:36;21.60;42.10
3758;DHT22;1894;51.038;13.692;2023-06-04T11:00:06;21.60;40.70
3758;DHT22;1894;51.038;13.692;2023-06-04T11:02:48;21.60;41.30
3758;DHT22;1894;51.038;13.692;2023-06-04T11:05:39;21.50;42.50
3758;DHT22;1894;51.038;13.692;2023-06-04T11:08:07;21.40;42.00
3758;DHT22;1894;51.038;13.692;2023-06-04T11:10:43;21.50;42.40
3758;DHT22;1894;51.038;13.692;2023-06-04T11:13:11;21.80;40.70
3758;DHT22;1894;51.038;13.692;2023-06-04T11:15:44;22.00;43.80
3758;DHT22;1894;51.038;13.692;2023-06-04T11:18:15;22.00;43.90
3758;DHT22;1894;51.038;13.692;2023-06-04T11:20:47;21.80;44.10
3758;DHT22;1894;51.038;13.692;2023-06-04T11:23:15;21.90;45.70
3758;DHT22;1894;51.038;13.692;2023-06-04T11:25:43;22.20;46.30
3758;DHT22;1894;51.038;13.692;2023-06-04T11:28:15;22.20;42.50
3758;DHT22;1894;51.038;13.692;2023-06-04T11:30:55;22.40;45.20
3758;DHT22;1894;51.038;13.692;2023-06-04T11:33:22;22.40;44.70
3758;DHT22;1894;51.038;13.692;2023-06-04T11:35:50;22.50;45.70
3758;DHT22;1894;51.038;13.692;2023-06-04T11:38:17;22.50;45.60
3758;DHT22;1894;51.038;13.692;2023-06-04T11:40:44;22.60;44.00
3758;DHT22;1894;51.038;13.692;2023-06-04T11:43:21;22.40;43.00
3758;DHT22;1894;51.038;13.692;2023-06-04T11:45:51;22.60;43.30
3758;DHT22;1894;51.038;13.692;2023-06-04T11:48:18;22.80;41.70
3758;DHT22;1894;51.038;13.692;2023-06-04T11:50:47;23.50;44.70
3758;DHT22;1894;51.038;13.692;2023-06-04T11:53:14;23.80;40.80
3758;DHT22;1894;51.038;13.692;2023-06-04T11:55:42;24.20;39.20
3758;DHT22;1894;51.038;13.692;2023-06-04T11:58:09;24.90;38.30
3758;DHT22;1894;51.038;13.692;2023-06-04T12:00:36;24.90;37.30
3758;DHT22;1894;51.038;13.692;2023-06-04T12:03:03;26.30;39.70
3758;DHT22;1894;51.038;13.692;2023-06-04T12:05:32;28.20;40.20
3758;DHT22;1894;51.038;13.692;2023-06-04T12:08:07;29.60;38.00
3758;DHT22;1894;51.038;13.692;2023-06-04T12:10:42;30.60;32.60
3758;DHT22;1894;51.038;13.692;2023-06-04T12:13:12;31.50;33.80
3758;DHT22;1894;51.038;13.692;2023-06-04T12:15:39;31.60;28.70
3758;DHT22;1894;51.038;13.692;2023-06-04T12:18:06;31.80;29.20
3758;DHT22;1894;51.038;13.692;2023-06-04T12:20:39;33.70;29.20
3758;DHT22;1894;51.038;13.692;2023-06-04T12:23:06;34.20;26.70
3758;DHT22;1894;51.038;13.692;2023-06-04T12:25:35;36.20;24.60
3758;DHT22;1894;51.038;13.692;2023-06-04T12:28:04;37.20;22.70
3758;DHT22;1894;51.038;13.692;2023-06-04T12:30:39;37.00;24.00
3758;DHT22;1894;51.038;13.692;2023-06-04T12:33:07;36.90;22.80
3758;DHT22;1894;51.038;13.692;2023-06-04T12:35:35;36.10;22.70
3758;DHT22;1894;51.038;13.692;2023-06-04T12:38:05;35.90;23.10
3758;DHT22;1894;51.038;13.692;2023-06-04T12:40:35;35.20;23.00
3758;DHT22;1894;51.038;13.692;2023-06-04T12:43:03;36.00;23.20
3758;DHT22;1894;51.038;13.692;2023-06-04T12:45:31;36.90;22.50
3758;DHT22;1894;51.038;13.692;2023-06-04T12:47:58;37.90;21.70
3758;DHT22;1894;51.038;13.692;2023-06-04T12:50:25;38.80;21.30
3758;DHT22;1894;51.038;13.692;2023-06-04T12:52:52;39.00;20.80
3758;DHT22;1894;51.038;13.692;2023-06-04T12:55:19;39.00;20.10
3758;DHT22;1894;51.038;13.692;2023-06-04T12:57:47;39.80;19.10
3758;DHT22;1894;51.038;13.692;2023-06-04T13:00:15;40.20;19.60
3758;DHT22;1894;51.038;13.692;2023-06-04T13:02:43;40.30;19.40
3758;DHT22;1894;51.038;13.692;2023-06-04T13:05:10;38.50;19.70
3758;DHT22;1894;51.038;13.692;2023-06-04T13:07:37;38.20;20.50
3758;DHT22;1894;51.038;13.692;2023-06-04T13:10:05;35.80;23.30
3758;DHT22;1894;51.038;13.692;2023-06-04T13:12:32;35.60;22.80
3758;DHT22;1894;51.038;13.692;2023-06-04T13:14:59;36.30;21.70
3758;DHT22;1894;51.038;13.692;2023-06-04T13:17:29;36.70;22.20
3758;DHT22;1894;51.038;13.692;2023-06-04T13:19:56;37.20;20.60
3758;DHT22;1894;51.038;13.692;2023-06-04T13:22:23;35.80;22.40
3758;DHT22;1894;51.038;13.692;2023-06-04T13:24:51;35.50;22.10
3758;DHT22;1894;51.038;13.692;2023-06-04T13:27:18;37.60;21.60
3758;DHT22;1894;51.038;13.692;2023-06-04T13:29:45;37.80;21.30
3758;DHT22;1894;51.038;13.692;2023-06-04T13:32:12;37.40;18.50
3758;DHT22;1894;51.038;13.692;2023-06-04T13:34:39;38.80;20.20
3758;DHT22;1894;51.038;13.692;2023-06-04T13:37:06;37.60;18.40
3758;DHT22;1894;51.038;13.692;2023-06-04T13:39:33;38.60;20.50
3758;DHT22;1894;51.038;13.692;2023-06-04T13:42:00;38.30;19.10
3758;DHT22;1894;51.038;13.692;2023-06-04T13:44:27;40.00;19.20
3758;DHT22;1894;51.038;13.692;2023-06-04T13:46:57;40.70;19.50
3758;DHT22;1894;51.038;13.692;2023-06-04T13:49:24;40.80;18.50
3758;DHT22;1894;51.038;13.692;2023-06-04T13:51:51;40.10;19.20
3758;DHT22;1894;51.038;13.692;2023-06-04T13:54:18;40.00;19.60
3758;DHT22;1894;51.038;13.692;2023-06-04T13:56:46;37.70;21.10
3758;DHT22;1894;51.038;13.692;2023-06-04T13:59:13;37.60;20.40
3758;DHT22;1894;51.038;13.692;2023-06-04T14:01:40;37.40;20.00
3758;DHT22;1894;51.038;13.692;2023-06-04T14:04:07;38.20;19.80
3758;DHT22;1894;51.038;13.692;2023-06-04T14:06:35;39.10;19.50
3758;DHT22;1894;51.038;13.692;2023-06-04T14:09:03;39.70;18.10
3758;DHT22;1894;51.038;13.692;2023-06-04T14:11:31;40.40;18.00
3758;DHT22;1894;51.038;13.692;2023-06-04T14:13:59;40.30;17.70
3758;DHT22;1894;51.038;13.692;2023-06-04T14:16:26;40.20;19.00
3758;DHT22;1894;51.038;13.692;2023-06-04T14:18:53;39.90;17.90
3758;DHT22;1894;51.038;13.692;2023-06-04T14:21:20;39.80;17.60
3758;DHT22;1894;51.038;13.692;2023-06-04T14:23:48;40.50;18.50
3758;DHT22;1894;51.038;13.692;2023-06-04T14:26:17;40.60;19.40
3758;DHT22;1894;51.038;13.692;2023-06-04T14:28:44;40.20;17.00
3758;DHT22;1894;51.038;13.692;2023-06-04T14:31:12;40.60;18.50
3758;DHT22;1894;51.038;13.692;2023-06-04T14:33:47;39.40;19.00
3758;DHT22;1894;51.038;13.692;2023-06-04T14:36:14;40.80;17.50
3758;DHT22;1894;51.038;13.692;2023-06-04T14:38:42;40.60;18.50
3758;DHT22;1894;51.038;13.692;2023-06-04T14:41:09;40.20;18.70
3758;DHT22;1894;51.038;13.692;2023-06-04T14:43:36;38.10;19.50
3758;DHT22;1894;51.038;13.692;2023-06-04T14:46:04;38.60;19.70
3758;DHT22;1894;51.038;13.692;2023-06-04T14:48:31;38.10;17.40
3758;DHT22;1894;51.038;13.692;2023-06-04T14:50:58;38.50;18.50
3758;DHT22;1894;51.038;13.692;2023-06-04T14:53:26;39.50;18.20
3758;DHT22;1894;51.038;13.692;2023-06-04T14:55:53;40.30;16.50
3758;DHT22;1894;51.038;13.692;2023-06-04T14:58:20;41.30;18.00
3758;DHT22;1894;51.038;13.692;2023-06-04T15:00:47;41.00;17.00
3758;DHT22;1894;51.038;13.692;2023-06-04T15:03:14;41.00;18.10
3758;DHT22;1894;51.038;13.692;2023-06-04T15:05:42;40.20;17.30
3758;DHT22;1894;51.038;13.692;2023-06-04T15:08:09;39.10;18.80
3758;DHT22;1894;51.038;13.692;2023-06-04T15:10:36;40.40;17.10
3758;DHT22;1894;51.038;13.692;2023-06-04T15:13:03;40.80;15.40
3758;DHT22;1894;51.038;13.692;2023-06-04T15:15:31;40.60;17.10
3758;DHT22;1894;51.038;13.692;2023-06-04T15:17:58;38.10;17.60
3758;DHT22;1894;51.038;13.692;2023-06-04T15:20:26;39.30;17.10
3758;DHT22;1894;51.038;13.692;2023-06-04T15:22:54;38.20;18.70
3758;DHT22;1894;51.038;13.692;2023-06-04T15:25:21;39.30;18.50
3758;DHT22;1894;51.038;13.692;2023-06-04T15:27:49;38.60;17.20
3758;DHT22;1894;51.038;13.692;2023-06-04T15:30:16;39.20;16.80
3758;DHT22;1894;51.038;13.692;2023-06-04T15:32:44;40.40;16.90
3758;DHT22;1894;51.038;13.692;2023-06-04T15:35:11;39.90;18.40
3758;DHT22;1894;51.038;13.692;2023-06-04T15:37:38;40.70;16.60
3758;DHT22;1894;51.038;13.692;2023-06-04T15:40:06;41.70;15.80
3758;DHT22;1894;51.038;13.692;2023-06-04T15:42:34;41.60;16.80
3758;DHT22;1894;51.038;13.692;2023-06-04T15:45:02;40.80;15.40
3758;DHT22;1894;51.038;13.692;2023-06-04T15:47:29;41.20;16.00
3758;DHT22;1894;51.038;13.692;2023-06-04T15:49:56;40.30;15.90
3758;DHT22;1894;51.038;13.692;2023-06-04T15:52:23;40.50;15.30
3758;DHT22;1894;51.038;13.692;2023-06-04T15:54:50;39.40;17.40
3758;DHT22;1894;51.038;13.692;2023-06-04T15:57:17;40.50;17.60
3758;DHT22;1894;51.038;13.692;2023-06-04T15:59:44;41.00;16.10
3758;DHT22;1894;51.038;13.692;2023-06-04T16:02:12;41.10;16.70
3758;DHT22;1894;51.038;13.692;2023-06-04T16:04:39;39.90;15.40